ADDS METAR Data INFO
IDs: Format: Raw Decoded Include TAF

Data at: 1516 UTC 11 Dec 2017

KMPZ 111455Z AUTO 19009KT 10SM CLR 02/M03 A2975 RMK AO2 T00161035
KMPZ 111435Z AUTO 19009KT 10SM CLR 01/M03 A2976 RMK AO2 T00141035
KMPZ 111415Z AUTO 17009KT 10SM CLR 01/M03 A2977 RMK AO2 T00061035
KMPZ 111355Z AUTO 16009KT 10SM CLR 00/M04 A2978 RMK AO2 T10041037
KMPZ 111335Z AUTO 15007KT 10SM CLR M01/M04 A2981 RMK AO2 T10071040
KMPZ 111315Z AUTO 12004KT 10SM CLR 00/M04 A2983 RMK AO2 T10051040
KMPZ 111255Z AUTO 17004KT 10SM CLR 00/M04 A2985 RMK AO2 T00001038
KMPZ 111235Z AUTO 17010KT 10SM CLR M01/M04 A2985 RMK AO2 T10061038
KMPZ 111215Z AUTO 15004KT 10SM SCT120 M01/M04 A2988 RMK AO2 T10101040
KMPZ 111155Z AUTO 00000KT 10SM CLR M01/M04 A2990 RMK AO2 T10111045 11002 21028
KMPZ 111135Z AUTO 16007KT 10SM CLR M01/M04 A2991 RMK AO2 T10101045
KMPZ 111115Z AUTO 17007KT 10SM CLR M01/M04 A2993 RMK AO2 T10151045
KMPZ 111055Z AUTO 17006KT 10SM CLR M02/M05 A2994 RMK AO2 T10211050
KMPZ 111035Z AUTO 17006KT 10SM CLR M02/M05 A2995 RMK AO2 T10221051
KMPZ 111015Z AUTO 17006KT 10SM CLR M02/M05 A2997 RMK AO2 T10231051
KMPZ 110955Z AUTO 16006KT 10SM CLR M02/M05 A2998 RMK AO2 T10231050
KMPZ 110935Z AUTO 15006KT 10SM CLR M03/M05 A2998 RMK AO2 T10261055
KMPZ 110915Z AUTO 16004KT 10SM CLR M02/M06 A2999 RMK AO2 T10251056
KMPZ 110855Z AUTO 18005KT 10SM CLR M03/M06 A3001 RMK AO2 T10271056
KMPZ 110835Z AUTO 14006KT 10SM CLR M02/M06 A3000 RMK AO2 T10221056
KMPZ 110815Z AUTO 15006KT 10SM CLR M02/M05 A3001 RMK AO2 T10161053
KMPZ 110755Z AUTO 14005KT 10SM CLR M01/M05 A3003 RMK AO2 T10061046
KMPZ 110735Z AUTO 15004KT 10SM CLR 00/M05 A3004 RMK AO2 T10051047
KMPZ 110715Z AUTO 17005KT 10SM CLR 00/M05 A3005 RMK AO2 T10031048
KMPZ 110655Z AUTO 16005KT 10SM CLR 00/M05 A3004 RMK AO2 T10051047
KMPZ 110635Z AUTO 16005KT 10SM CLR M01/M05 A3005 RMK AO2 T10071046
KMPZ 110615Z AUTO 15004KT 10SM CLR M01/M05 A3007 RMK AO2 T10101048
KMPZ 110555Z AUTO 16005KT 10SM CLR M01/M05 A3007 RMK AO2 T10101047 10017 21021 400611072
KMPZ 110535Z AUTO 15006KT 10SM CLR M02/M05 A3007 RMK AO2 T10191052
KMPZ 110515Z AUTO 14005KT 10SM BKN110 M01/M05 A3008 RMK AO2 T10131055
KMPZ 110455Z AUTO 13005KT 10SM OVC110 M01/M05 A3008 RMK AO2 T10101051
KMPZ 110435Z AUTO 00000KT 10SM OVC110 M01/M05 A3010 RMK AO2 T10101055
KMPZ 110415Z AUTO 07004KT 10SM OVC110 M01/M05 A3010 RMK AO2 T10111055
KMPZ 110355Z AUTO 00000KT 10SM OVC110 M01/M06 A3011 RMK AO2 T10121056
KMPZ 110335Z AUTO 00000KT 10SM OVC110 M01/M06 A3011 RMK AO2 T10151060
KMPZ 110315Z AUTO 00000KT 10SM OVC110 M01/M06 A3010 RMK AO2 T10151061
KMPZ 110255Z AUTO 00000KT 10SM OVC110 00/M06 A3010 RMK AO2 T10051056
KMPZ 110235Z AUTO 00000KT 10SM BKN110 01/M05 A3010 RMK AO2 T00061052
KMPZ 110215Z AUTO 26003KT 10SM BKN110 00/M05 A3010 RMK AO2 T00041053
KMPZ 110155Z AUTO 26003KT 10SM OVC110 00/M05 A3010 RMK AO2 T00001054
KMPZ 110135Z AUTO 26003KT 10SM BKN120 00/M05 A3010 RMK AO2 T10011055
KMPZ 110115Z AUTO 24003KT 10SM CLR 00/M06 A3009 RMK AO2 T10031056
KMPZ 110055Z AUTO 25003KT 10SM CLR M01/M06 A3009 RMK AO2 T10101060
KMPZ 110035Z AUTO 26003KT 10SM CLR 01/M05 A3009 RMK AO2 T00111054
KMPZ 110015Z AUTO 30003KT 10SM CLR 02/M05 A3009 RMK AO2 T00151052
KMPZ 102355Z AUTO 30003KT 10SM CLR 02/M05 A3009 RMK AO2 T00181051 10061 20017
KMPZ 102335Z AUTO 32003KT 10SM CLR 02/M05 A3008 RMK AO2 T00201050
KMPZ 102315Z AUTO 30004KT 10SM CLR 02/M05 A3008 RMK AO2 T00241050
KMPZ 102255Z AUTO 30004KT 10SM CLR 03/M05 A3007 RMK AO2 T00281050
KMPZ 102235Z AUTO 30007KT 10SM CLR 04/M05 A3007 RMK AO2 T00371048
KMPZ 102215Z AUTO 31008KT 10SM CLR 04/M05 A3006 RMK AO2 T00421047
KMPZ 102155Z AUTO 30008KT 10SM CLR 05/M05 A3004 RMK AO2 T00481047
KMPZ 102135Z AUTO 31009KT 10SM CLR 05/M05 A3003 RMK AO2 T00481047
KMPZ 102115Z AUTO 30009G16KT 10SM CLR 05/M05 A3002 RMK AO2 T00471048
KMPZ 102055Z AUTO 30009G16KT 10SM CLR 05/M05 A3001 RMK AO2 T00501048
KMPZ 102035Z AUTO 30011G14KT 10SM CLR 06/M05 A3001 RMK AO2 T00561047
KMPZ 102015Z AUTO 30012G16KT 10SM CLR 06/M05 A3000 RMK AO2 T00551047
KMPZ 101955Z AUTO 30012G16KT 10SM CLR 06/M05 A3000 RMK AO2 T00591047
KMPZ 101935Z AUTO 30013G20KT 10SM CLR 06/M05 A2999 RMK AO2 T00561047
KMPZ 101915Z AUTO 30013G20KT 10SM CLR 06/M05 A2999 RMK AO2 T00581046
KMPZ 101855Z AUTO 32014G19KT 10SM CLR 05/M05 A2998 RMK AO2 T00541046
KMPZ 101835Z AUTO 31010KT 10SM CLR 05/M04 A2998 RMK AO2 T00511045
KMPZ 101815Z AUTO 30014G21KT 10SM CLR 05/M04 A2998 RMK AO2 T00461045
KMPZ 101755Z AUTO 31011KT 10SM CLR 05/M04 A2998 RMK AO2 T00451045 10045 21052
KMPZ 101735Z AUTO 30014G17KT 10SM CLR 04/M04 A2998 RMK AO2 T00381044
KMPZ 101715Z AUTO 31011G19KT 10SM CLR 03/M04 A2998 RMK AO2 T00341045
KMPZ 101655Z AUTO 30011G18KT 10SM CLR 03/M04 A2997 RMK AO2 T00291045
KMPZ 101635Z AUTO 32011G16KT 10SM CLR 03/M05 A2997 RMK AO2 T00251048
KMPZ 101615Z AUTO 29011G15KT 10SM CLR 02/M05 A2996 RMK AO2 T00161049
KMPZ 101555Z AUTO 29010G14KT 10SM CLR 01/M05 A2996 RMK AO2 T00091053
KMPZ 101535Z AUTO 29008KT 10SM CLR 00/M05 A2995 RMK AO2 T00011055
KMPZ 101515Z AUTO 27008KT 10SM CLR 00/M06 A2995 RMK AO2 T00011057
KMPZ 101455Z AUTO 25009KT 10SM CLR M01/M06 A2994 RMK AO2 T10091062
KMPZ 101435Z AUTO 24008KT 10SM CLR M02/M07 A2994 RMK AO2 T10211069
KMPZ 101415Z AUTO 23008KT 10SM CLR M03/M07 A2994 RMK AO2 T10291070
KMPZ 101355Z AUTO 24009KT 10SM CLR M03/M07 A2994 RMK AO2 T10321073
KMPZ 101335Z AUTO 22008KT 10SM CLR M04/M08 A2993 RMK AO2 T10401077
KMPZ 101315Z AUTO 23009KT 10SM CLR M05/M08 A2993 RMK AO2 T10501082
KMPZ 101255Z AUTO 22007KT 10SM CLR M05/M08 A2994 RMK AO2 T10501085
KMPZ 101235Z AUTO 22009KT 10SM CLR M05/M09 A2993 RMK AO2 T10501087
KMPZ 101215Z AUTO 20011KT 10SM CLR M05/M09 A2993 RMK AO2 T10511090
KMPZ 101155Z AUTO 20014KT 10SM CLR M05/M09 A2993 RMK AO2 T10521090 11051 21072
KMPZ 101135Z AUTO 20011KT 10SM CLR M05/M09 A2994 RMK AO2 T10521091
KMPZ 101115Z AUTO 19012KT 10SM CLR M05/M09 A2994 RMK AO2 T10531092
KMPZ 101055Z AUTO 19013KT 10SM CLR M05/M09 A2995 RMK AO2 T10551093
KMPZ 101035Z AUTO 19012KT 10SM CLR M06/M09 A2996 RMK AO2 T10571095
KMPZ 101015Z AUTO 19010KT 10SM CLR M06/M09 A2998 RMK AO2 T10571095
KMPZ 100955Z AUTO 19010KT 10SM CLR M06/M09 A2999 RMK AO2 T10561095
KMPZ 100935Z AUTO 19010KT 10SM CLR M06/M10 A3000 RMK AO2 T10561096
KMPZ 100915Z AUTO 19009KT 10SM SCT110 M05/M10 A3001 RMK AO2 T10551096
KMPZ 100855Z AUTO 20009KT 10SM BKN110 M05/M10 A3002 RMK AO2 T10521096
KMPZ 100835Z AUTO 19008KT 10SM SCT100 M05/M10 A3003 RMK AO2 T10551098
KMPZ 100815Z AUTO 20009KT 10SM CLR M05/M10 A3002 RMK AO2 T10531096
KMPZ 100755Z AUTO 19010KT 10SM CLR M06/M10 A3003 RMK AO2 T10571098
KMPZ 100735Z AUTO 19007KT 10SM CLR M07/M10 A3005 RMK AO2 T10671099
KMPZ 100715Z AUTO 18006KT 10SM CLR M07/M10 A3006 RMK AO2 T10711105
KMPZ 100655Z AUTO 19007KT 10SM CLR M07/M10 A3007 RMK AO2 T10711104
KMPZ 100635Z AUTO 20005KT 10SM SCT120 M07/M11 A3010 RMK AO2 T10711106
KMPZ 100615Z AUTO 20005KT 10SM SCT120 M06/M10 A3010 RMK AO2 T10651100
KMPZ 100555Z AUTO 21006KT 10SM CLR M07/M10 A3012 RMK AO2 T10681104 11036 21076 400001076
KMPZ 100535Z AUTO 22005KT 10SM CLR M06/M10 A3013 RMK AO2 T10601100
KMPZ 100515Z AUTO 22006KT 10SM CLR M06/M10 A3012 RMK AO2 T10601098
KMPZ 100455Z AUTO 22004KT 10SM CLR M06/M10 A3013 RMK AO2 T10601096
KMPZ 100435Z AUTO 23004KT 10SM CLR M06/M10 A3014 RMK AO2 T10651100
KMPZ 100415Z AUTO 20003KT 10SM CLR M07/M10 A3014 RMK AO2 T10691103
KMPZ 100355Z AUTO 20004KT 10SM CLR M07/M11 A3014 RMK AO2 T10741107
KMPZ 100335Z AUTO 22005KT 10SM CLR M08/M11 A3015 RMK AO2 T10761111